createdAt,value
2018-06-09T00:01:26.741Z,24.39
2018-06-09T00:03:53.826Z,24.16
2018-06-09T00:06:20.900Z,24.23
2018-06-09T00:08:48.068Z,24.28
2018-06-09T00:11:15.132Z,24.12
2018-06-09T00:13:42.236Z,23.95
2018-06-09T00:16:09.372Z,23.62
2018-06-09T00:18:36.643Z,23.65
2018-06-09T00:21:03.712Z,23.37
2018-06-09T00:23:31.461Z,23.54
2018-06-09T00:25:58.566Z,23.38
2018-06-09T00:28:25.736Z,23.39
2018-06-09T00:30:52.792Z,23.17
2018-06-09T00:33:19.901Z,23.38
2018-06-09T00:35:47.150Z,23.79
2018-06-09T00:38:14.249Z,23.74
2018-06-09T00:40:41.411Z,23.68
2018-06-09T00:43:08.455Z,23.73
2018-06-09T00:45:35.726Z,23.39
2018-06-09T00:48:02.803Z,23.64
2018-06-09T00:50:29.901Z,23.58
2018-06-09T00:52:57.070Z,23.29
2018-06-09T00:55:24.204Z,23.28
2018-06-09T00:57:51.303Z,23.26
2018-06-09T01:00:18.442Z,23.27
2018-06-09T01:02:45.656Z,23.25
2018-06-09T01:05:12.842Z,23.30
2018-06-09T01:07:39.927Z,23.19
2018-06-09T01:10:07.041Z,23.24
2018-06-09T01:12:34.359Z,23.20
2018-06-09T01:15:01.488Z,22.99
2018-06-09T01:17:28.554Z,23.10
2018-06-09T01:19:55.722Z,23.08
2018-06-09T01:22:22.836Z,23.12
2018-06-09T01:24:49.976Z,23.18
2018-06-09T01:27:17.049Z,23.19
2018-06-09T01:29:44.189Z,23.11
2018-06-09T01:32:11.388Z,23.15
2018-06-09T01:34:38.477Z,23.11
2018-06-09T01:37:05.606Z,22.94
2018-06-09T01:39:32.735Z,23.16
2018-06-09T01:41:59.830Z,22.79
2018-06-09T01:44:26.975Z,22.82
2018-06-09T01:46:54.143Z,22.77
2018-06-09T01:49:21.328Z,22.90
2018-06-09T01:51:48.424Z,22.94
2018-06-09T01:54:15.548Z,22.93
2018-06-09T01:56:42.653Z,23.03
2018-06-09T01:59:09.757Z,22.90
2018-06-09T02:01:36.848Z,22.63
2018-06-09T02:04:04.789Z,22.55
2018-06-09T02:06:31.929Z,22.80
2018-06-09T02:08:59.074Z,22.61
2018-06-09T02:11:26.217Z,22.82
2018-06-09T02:13:53.348Z,22.92
2018-06-09T02:16:20.428Z,22.81
2018-06-09T02:18:47.546Z,22.83
2018-06-09T02:21:14.638Z,22.64
2018-06-09T02:23:41.769Z,22.87
2018-06-09T02:26:08.970Z,22.90
2018-06-09T02:28:57.439Z,22.90
2018-06-09T02:31:32.633Z,22.77
2018-06-09T02:33:59.776Z,22.52
2018-06-09T02:36:26.895Z,22.63
2018-06-09T02:38:54.106Z,22.59
2018-06-09T02:41:21.219Z,22.71
2018-06-09T02:43:48.280Z,22.75
2018-06-09T02:46:15.412Z,22.71
2018-06-09T02:48:42.504Z,22.79
2018-06-09T02:51:09.582Z,22.74
2018-06-09T02:53:36.710Z,22.78
2018-06-09T02:56:03.897Z,22.61
2018-06-09T02:58:31.012Z,22.51
2018-06-09T03:00:58.150Z,22.54
2018-06-09T03:03:25.339Z,22.48
2018-06-09T03:05:52.577Z,22.38
2018-06-09T03:08:19.664Z,22.48
2018-06-09T03:10:46.763Z,22.52
2018-06-09T03:13:13.992Z,22.47
2018-06-09T03:15:41.089Z,22.58
2018-06-09T03:18:08.167Z,22.52
2018-06-09T03:20:35.212Z,22.55
2018-06-09T03:23:02.327Z,22.63
2018-06-09T03:25:29.377Z,22.64
2018-06-09T03:27:56.614Z,22.58
2018-06-09T03:30:23.848Z,22.76
2018-06-09T03:32:50.935Z,22.73
2018-06-09T03:35:18.031Z,22.49
2018-06-09T03:37:45.106Z,22.28
2018-06-09T03:40:12.237Z,22.67
2018-06-09T03:42:39.344Z,22.65
2018-06-09T03:45:06.528Z,22.70
2018-06-09T03:47:33.622Z,22.73
2018-06-09T03:50:00.744Z,22.71
2018-06-09T03:52:27.828Z,22.68
2018-06-09T03:54:54.936Z,22.80
2018-06-09T03:57:22.026Z,22.83
2018-06-09T03:59:49.900Z,23.02
2018-06-09T04:02:16.988Z,23.70
2018-06-09T04:04:44.173Z,24.46
2018-06-09T04:07:11.328Z,25.09
2018-06-09T04:09:38.421Z,24.99
2018-06-09T04:12:05.552Z,24.98
2018-06-09T04:14:32.759Z,25.15
2018-06-09T04:16:59.829Z,24.94
2018-06-09T04:19:26.900Z,24.40
2018-06-09T04:21:54.059Z,23.75
2018-06-09T04:24:21.180Z,23.19
2018-06-09T04:26:48.302Z,22.99
2018-06-09T04:29:15.527Z,22.65
2018-06-09T04:31:42.653Z,22.70
2018-06-09T04:34:09.790Z,22.88
2018-06-09T04:36:36.912Z,23.13
2018-06-09T04:39:06.184Z,23.30
2018-06-09T04:41:33.335Z,22.81
2018-06-09T04:44:00.511Z,22.87
2018-06-09T04:46:27.635Z,22.75
2018-06-09T04:48:54.720Z,22.77
2018-06-09T04:51:21.838Z,22.81
2018-06-09T04:53:48.911Z,22.54
2018-06-09T04:56:15.975Z,22.56
2018-06-09T04:58:43.237Z,22.65
2018-06-09T05:01:11.461Z,22.68
2018-06-09T05:03:38.677Z,22.65
2018-06-09T05:06:05.741Z,22.48
2018-06-09T05:08:32.823Z,22.64
2018-06-09T05:11:00.015Z,22.54
2018-06-09T05:13:27.188Z,22.20
2018-06-09T05:15:54.287Z,22.39
2018-06-09T05:18:21.507Z,22.56
2018-06-09T05:23:14.751Z,22.59
2018-06-09T05:25:42.964Z,22.59
2018-06-09T05:28:11.259Z,22.56
2018-06-09T05:30:39.552Z,22.55
2018-06-09T05:33:07.799Z,22.53
2018-06-09T05:35:36.085Z,22.45
2018-06-09T05:38:04.337Z,22.49
2018-06-09T05:40:32.640Z,22.56
2018-06-09T05:43:01.045Z,22.40
2018-06-09T05:45:29.305Z,22.44
2018-06-09T05:47:57.573Z,22.56
2018-06-09T05:50:25.804Z,22.86
2018-06-09T05:52:54.014Z,22.74
2018-06-09T05:55:22.279Z,22.67
2018-06-09T05:57:50.491Z,22.64
2018-06-09T06:00:18.779Z,22.65
2018-06-09T06:02:47.017Z,22.65
2018-06-09T06:05:15.256Z,22.76
2018-06-09T06:07:43.474Z,22.76
2018-06-09T06:10:11.708Z,22.66
2018-06-09T06:12:39.961Z,22.78
2018-06-09T06:15:08.259Z,22.96
2018-06-09T06:17:36.567Z,22.91
2018-06-09T06:20:04.857Z,22.79
2018-06-09T06:22:33.159Z,22.80
2018-06-09T06:25:01.550Z,22.98
2018-06-09T06:27:29.948Z,22.90
2018-06-09T06:29:58.208Z,23.02
2018-06-09T06:32:26.501Z,23.00
2018-06-09T06:34:54.757Z,23.09
2018-06-09T06:37:23.009Z,23.09
2018-06-09T06:39:51.237Z,22.94
2018-06-09T06:42:19.523Z,23.09
2018-06-09T06:44:47.825Z,23.01
2018-06-09T06:47:16.114Z,23.09
2018-06-09T06:49:44.315Z,23.07
2018-06-09T06:52:12.599Z,23.13
2018-06-09T06:54:40.860Z,23.23
2018-06-09T06:57:09.145Z,23.29
2018-06-09T06:59:37.580Z,23.32
2018-06-09T07:02:05.853Z,23.27
2018-06-09T07:04:34.096Z,23.33
2018-06-09T07:07:02.338Z,23.26
2018-06-09T07:09:30.588Z,23.34
2018-06-09T07:11:58.888Z,23.45
2018-06-09T07:14:27.133Z,23.47
2018-06-09T07:16:55.398Z,23.55
2018-06-09T07:19:23.665Z,23.57
2018-06-09T07:21:51.981Z,23.57
2018-06-09T07:24:20.392Z,23.71
2018-06-09T07:26:48.779Z,23.48
2018-06-09T07:29:17.287Z,23.67
2018-06-09T07:31:45.632Z,23.66
2018-06-09T07:34:13.932Z,23.77
2018-06-09T07:36:42.199Z,23.79
2018-06-09T07:39:10.482Z,23.96
2018-06-09T07:41:38.741Z,23.85
2018-06-09T07:44:07.000Z,23.96
2018-06-09T07:46:35.252Z,24.01
2018-06-09T07:49:03.539Z,24.16
2018-06-09T07:51:31.797Z,24.06
2018-06-09T07:54:00.112Z,23.83
2018-06-09T07:56:28.338Z,23.89
2018-06-09T07:58:56.856Z,23.92
2018-06-09T08:01:25.086Z,23.95
2018-06-09T08:03:53.566Z,23.93
2018-06-09T08:06:21.824Z,23.98
2018-06-09T08:08:50.111Z,23.96
2018-06-09T08:11:18.380Z,23.87
2018-06-09T08:13:46.644Z,24.01
2018-06-09T08:16:14.931Z,24.22
2018-06-09T08:18:43.181Z,24.08
2018-06-09T08:21:11.461Z,24.32
2018-06-09T08:23:39.740Z,24.18
2018-06-09T08:26:08.015Z,24.23
2018-06-09T08:28:36.256Z,24.23
2018-06-09T08:31:04.477Z,24.15
2018-06-09T08:33:32.877Z,24.22
2018-06-09T08:36:01.252Z,24.26
2018-06-09T08:38:29.467Z,24.27
2018-06-09T08:40:57.751Z,24.31
2018-06-09T08:43:26.156Z,24.25
2018-06-09T08:45:54.423Z,24.36
2018-06-09T08:48:22.724Z,24.52
2018-06-09T08:50:51.039Z,24.57
2018-06-09T08:53:19.421Z,24.88
2018-06-09T08:55:47.758Z,24.78
2018-06-09T08:58:16.030Z,25.10
2018-06-09T09:00:44.315Z,25.07
2018-06-09T09:03:12.623Z,25.27
2018-06-09T09:05:40.942Z,25.35
2018-06-09T09:08:09.809Z,25.49
2018-06-09T09:10:38.153Z,25.43
2018-06-09T09:13:06.436Z,25.27
2018-06-09T09:15:34.683Z,25.37
2018-06-09T09:18:02.949Z,25.34
2018-06-09T09:20:31.185Z,25.29
2018-06-09T09:22:59.444Z,25.45
2018-06-09T09:25:27.676Z,25.42
2018-06-09T09:27:55.929Z,25.57
2018-06-09T09:30:24.236Z,25.49
2018-06-09T09:32:52.496Z,25.75
2018-06-09T09:35:20.815Z,25.73
2018-06-09T09:37:49.793Z,25.67
2018-06-09T09:40:18.029Z,25.83
2018-06-09T09:42:46.358Z,25.89
2018-06-09T09:45:14.606Z,25.84
2018-06-09T09:47:42.842Z,25.91
2018-06-09T09:50:11.104Z,25.88
2018-06-09T09:52:39.381Z,25.85
2018-06-09T09:55:07.738Z,25.90
2018-06-09T09:58:10.101Z,25.92
2018-06-09T10:00:39.230Z,25.99
2018-06-09T10:03:07.477Z,25.98
2018-06-09T10:05:35.716Z,26.20
2018-06-09T10:08:04.081Z,26.15
2018-06-09T10:10:32.374Z,26.27
2018-06-09T10:13:00.686Z,26.58
2018-06-09T10:15:28.945Z,26.53
2018-06-09T10:17:57.258Z,26.73
2018-06-09T10:20:25.538Z,26.63
2018-06-09T10:22:53.796Z,26.67
2018-06-09T10:25:22.034Z,26.77
2018-06-09T10:27:50.268Z,26.75
2018-06-09T10:30:18.524Z,27.01
2018-06-09T10:32:46.795Z,26.99
2018-06-09T10:35:15.052Z,26.95
2018-06-09T10:37:43.339Z,27.08
2018-06-09T10:40:11.668Z,26.88
2018-06-09T10:42:39.871Z,27.11
2018-06-09T10:45:08.145Z,27.21
2018-06-09T10:47:36.440Z,27.44
2018-06-09T10:50:04.708Z,27.30
2018-06-09T10:52:32.964Z,27.44
2018-06-09T10:55:01.724Z,27.52
2018-06-09T10:57:29.960Z,27.61
2018-06-09T10:59:58.157Z,27.92
2018-06-09T11:02:26.424Z,27.80
2018-06-09T11:04:54.670Z,27.97
2018-06-09T11:07:22.950Z,28.10
2018-06-09T11:09:51.162Z,27.99
2018-06-09T11:12:19.417Z,28.03
2018-06-09T11:14:47.662Z,28.31
2018-06-09T11:17:15.952Z,28.25
2018-06-09T11:19:44.196Z,28.02
2018-06-09T11:22:12.406Z,28.19
2018-06-09T11:24:40.712Z,28.23
2018-06-09T11:27:08.914Z,28.20
2018-06-09T11:29:37.204Z,28.21
2018-06-09T11:32:05.501Z,28.25
2018-06-09T11:34:33.740Z,28.16
2018-06-09T11:37:02.034Z,28.38
2018-06-09T11:39:30.253Z,28.41
2018-06-09T11:41:58.543Z,28.48
2018-06-09T11:44:26.789Z,28.60
2018-06-09T11:46:55.105Z,28.56
2018-06-09T11:49:23.382Z,28.44
2018-06-09T11:51:51.665Z,28.64
2018-06-09T11:54:19.950Z,28.69
2018-06-09T11:56:48.214Z,28.68
2018-06-09T11:59:16.475Z,28.88
2018-06-09T12:01:44.715Z,28.84
2018-06-09T12:04:12.971Z,28.94
2018-06-09T12:06:41.203Z,29.00
2018-06-09T12:09:09.444Z,28.98
2018-06-09T12:11:37.693Z,29.11
2018-06-09T12:14:05.907Z,28.92
2018-06-09T12:16:34.125Z,29.32
2018-06-09T12:19:02.787Z,29.25
2018-06-09T12:21:31.063Z,29.24
2018-06-09T12:23:59.331Z,29.41
2018-06-09T12:26:27.617Z,29.48
2018-06-09T12:28:55.877Z,29.32
2018-06-09T12:31:24.182Z,29.54
2018-06-09T12:33:52.441Z,29.56
2018-06-09T12:36:20.740Z,29.54
2018-06-09T12:38:48.992Z,29.70
2018-06-09T12:41:17.206Z,29.62
2018-06-09T12:43:45.453Z,29.81
2018-06-09T12:46:13.689Z,29.86
2018-06-09T12:48:42.028Z,29.73
2018-06-09T12:51:10.257Z,29.65
2018-06-09T12:53:38.485Z,29.80
2018-06-09T12:56:06.726Z,29.76
2018-06-09T12:58:35.012Z,29.84
2018-06-09T13:01:03.252Z,29.97
2018-06-09T13:03:31.523Z,30.06
2018-06-09T13:05:59.750Z,30.14
2018-06-09T13:08:28.038Z,30.27
2018-06-09T13:10:56.247Z,30.14
2018-06-09T13:13:24.480Z,30.10
2018-06-09T13:15:52.742Z,30.15
2018-06-09T13:18:20.967Z,30.29
2018-06-09T13:20:49.308Z,30.16
2018-06-09T13:23:17.528Z,30.10
2018-06-09T13:25:45.818Z,30.15
2018-06-09T13:28:14.045Z,30.31
2018-06-09T13:30:42.286Z,30.36
2018-06-09T13:33:10.527Z,30.30
2018-06-09T13:35:38.788Z,30.19
2018-06-09T13:38:07.139Z,30.35
2018-06-09T13:40:35.494Z,30.31
2018-06-09T13:43:03.767Z,30.49
2018-06-09T13:45:31.990Z,30.60
2018-06-09T13:48:00.275Z,30.72
2018-06-09T13:50:28.581Z,30.72
2018-06-09T13:52:57.062Z,30.90
2018-06-09T13:55:25.372Z,30.77
2018-06-09T13:57:53.673Z,30.77
2018-06-09T14:00:21.960Z,30.52
2018-06-09T14:02:50.293Z,30.61
2018-06-09T14:05:18.535Z,30.67
2018-06-09T14:07:46.745Z,30.71
2018-06-09T14:10:15.042Z,30.62
2018-06-09T14:12:47.115Z,30.99
2018-06-09T14:15:16.155Z,30.92
2018-06-09T14:17:44.440Z,30.90
2018-06-09T14:20:12.930Z,30.76
2018-06-09T14:22:41.987Z,30.73
2018-06-09T14:25:25.873Z,30.51
2018-06-09T14:27:55.014Z,30.64
2018-06-09T14:30:23.255Z,30.85
2018-06-09T14:32:51.694Z,30.63
2018-06-09T14:35:19.932Z,30.70
2018-06-09T14:37:48.235Z,30.75
2018-06-09T14:40:16.452Z,30.71
2018-06-09T14:42:44.731Z,30.70
2018-06-09T14:45:12.990Z,30.78
2018-06-09T14:47:41.249Z,30.62
2018-06-09T14:50:09.532Z,30.89
2018-06-09T14:52:39.574Z,30.89
2018-06-09T14:55:35.942Z,31.21
2018-06-09T14:58:46.768Z,31.06
2018-06-09T15:01:15.010Z,31.10
2018-06-09T15:03:43.233Z,31.19
2018-06-09T15:06:11.505Z,31.04
2018-06-09T15:08:39.731Z,31.12
2018-06-09T15:11:08.060Z,31.01
2018-06-09T15:13:36.260Z,30.86
2018-06-09T15:16:07.310Z,31.07
2018-06-09T15:18:35.636Z,31.08
2018-06-09T15:21:03.900Z,31.01
2018-06-09T15:23:32.159Z,31.01
2018-06-09T15:26:00.460Z,30.88
2018-06-09T15:28:28.817Z,31.18
2018-06-09T15:30:57.252Z,31.21
2018-06-09T15:33:25.516Z,31.35
2018-06-09T15:35:53.801Z,31.38
2018-06-09T15:38:22.144Z,31.23
2018-06-09T15:40:50.345Z,31.08
2018-06-09T15:43:18.635Z,31.32
2018-06-09T15:45:46.932Z,31.53
2018-06-09T15:48:15.197Z,31.64
2018-06-09T15:50:43.474Z,31.54
2018-06-09T15:53:11.723Z,31.62
2018-06-09T15:55:49.832Z,31.66
2018-06-09T15:58:18.043Z,31.81
2018-06-09T16:00:46.339Z,31.62
2018-06-09T16:03:14.604Z,31.69
2018-06-09T16:05:42.891Z,32.08
2018-06-09T16:08:11.812Z,31.79
2018-06-09T16:10:40.060Z,31.75
2018-06-09T16:13:08.356Z,31.95
2018-06-09T16:15:36.541Z,31.79
2018-06-09T16:18:04.786Z,31.74
2018-06-09T16:20:33.016Z,31.44
2018-06-09T16:23:01.336Z,31.45
2018-06-09T16:25:29.604Z,31.51
2018-06-09T16:27:57.906Z,31.27
2018-06-09T16:30:26.120Z,31.29
2018-06-09T16:32:54.367Z,31.48
2018-06-09T16:35:22.637Z,31.47
2018-06-09T16:37:50.940Z,31.51
2018-06-09T16:40:19.171Z,31.49
2018-06-09T16:42:47.381Z,31.36
2018-06-09T16:45:15.637Z,31.29
2018-06-09T16:47:43.919Z,31.17
2018-06-09T16:50:12.131Z,31.16
2018-06-09T16:52:40.402Z,31.62
2018-06-09T16:55:08.699Z,31.48
2018-06-09T16:57:36.980Z,31.60
2018-06-09T17:00:05.537Z,31.42
2018-06-09T17:02:33.799Z,31.27
2018-06-09T17:05:02.057Z,31.29
2018-06-09T17:07:30.320Z,31.27
2018-06-09T17:09:58.721Z,31.31
2018-06-09T17:12:27.060Z,31.19
2018-06-09T17:14:55.354Z,31.06
2018-06-09T17:17:23.727Z,31.26
2018-06-09T17:19:51.949Z,31.09
2018-06-09T17:22:20.221Z,30.87
2018-06-09T17:24:48.481Z,31.04
2018-06-09T17:27:16.796Z,30.86
2018-06-09T17:29:45.635Z,31.05
2018-06-09T17:32:14.007Z,31.20
2018-06-09T17:34:42.315Z,31.13
2018-06-09T17:37:10.574Z,31.04
2018-06-09T17:39:38.823Z,30.77
2018-06-09T17:42:07.857Z,31.05
2018-06-09T17:44:36.224Z,31.07
2018-06-09T17:47:04.476Z,30.76
2018-06-09T17:49:32.695Z,30.96
2018-06-09T17:52:00.921Z,30.91
2018-06-09T17:54:29.239Z,30.98
2018-06-09T17:56:57.626Z,30.86
2018-06-09T17:59:25.864Z,30.82
2018-06-09T18:01:54.174Z,30.71
2018-06-09T18:04:22.418Z,30.69
2018-06-09T18:06:50.794Z,31.00
2018-06-09T18:09:19.745Z,30.66
2018-06-09T18:11:48.112Z,30.67
2018-06-09T18:14:16.415Z,30.46
2018-06-09T18:16:44.702Z,30.52
2018-06-09T18:19:12.956Z,30.51
2018-06-09T18:21:41.191Z,30.43
2018-06-09T18:24:09.491Z,30.40
2018-06-09T18:26:37.786Z,30.21
2018-06-09T18:29:06.146Z,30.13
2018-06-09T18:31:34.441Z,30.44
2018-06-09T18:34:02.699Z,30.16
2018-06-09T18:36:30.912Z,30.35
2018-06-09T18:38:59.265Z,30.39
2018-06-09T18:41:27.505Z,30.18
2018-06-09T18:43:55.770Z,30.19
2018-06-09T18:46:24.029Z,30.11
2018-06-09T18:48:52.306Z,30.08
2018-06-09T18:51:20.735Z,29.56
2018-06-09T18:53:49.032Z,29.53
2018-06-09T18:56:17.260Z,29.69
2018-06-09T18:58:45.648Z,29.56
2018-06-09T19:01:14.172Z,29.78
2018-06-09T19:03:42.426Z,29.65
2018-06-09T19:06:10.738Z,29.52
2018-06-09T19:08:39.175Z,29.60
2018-06-09T19:11:07.533Z,29.37
2018-06-09T19:13:35.866Z,29.25
2018-06-09T19:16:04.247Z,29.38
2018-06-09T19:18:35.065Z,29.19
2018-06-09T19:21:03.335Z,29.32
2018-06-09T19:23:31.610Z,29.26
2018-06-09T19:25:59.914Z,29.29
2018-06-09T19:28:28.199Z,29.02
2018-06-09T19:30:56.566Z,28.91
2018-06-09T19:33:24.941Z,28.92
2018-06-09T19:35:53.237Z,28.83
2018-06-09T19:38:21.604Z,28.69
2018-06-09T19:40:49.940Z,28.97
2018-06-09T19:43:18.183Z,28.83
2018-06-09T19:45:46.451Z,28.56
2018-06-09T19:48:14.725Z,28.83
2018-06-09T19:50:42.995Z,28.87
2018-06-09T19:53:11.308Z,28.67
2018-06-09T19:55:39.584Z,28.51
2018-06-09T19:58:08.160Z,28.61
2018-06-09T20:00:37.576Z,28.53
2018-06-09T20:03:06.910Z,28.40
2018-06-09T20:05:36.107Z,28.55
2018-06-09T20:08:04.883Z,28.31
2018-06-09T20:10:34.155Z,28.42
2018-06-09T20:13:02.533Z,28.36
2018-06-09T20:15:31.036Z,28.30
2018-06-09T20:17:59.300Z,28.38
2018-06-09T20:20:27.982Z,28.39
2018-06-09T20:22:56.348Z,28.37
2018-06-09T20:25:24.608Z,28.33
2018-06-09T20:27:53.184Z,28.29
2018-06-09T20:30:21.491Z,28.25
2018-06-09T20:32:49.871Z,28.09
2018-06-09T20:35:18.201Z,27.94
2018-06-09T20:37:46.558Z,27.98
2018-06-09T20:40:14.917Z,27.89
2018-06-09T20:42:43.214Z,27.88
2018-06-09T20:45:11.649Z,27.83
2018-06-09T20:47:40.291Z,27.87
2018-06-09T20:50:08.634Z,27.90
2018-06-09T20:52:36.872Z,27.58
2018-06-09T20:55:05.129Z,27.60
2018-06-09T20:57:33.395Z,27.65
2018-06-09T21:00:01.771Z,27.50
2018-06-09T21:02:30.294Z,27.65
2018-06-09T21:04:58.827Z,27.47
2018-06-09T21:07:27.104Z,27.50
2018-06-09T21:09:55.375Z,27.40
2018-06-09T21:12:23.853Z,27.57
2018-06-09T21:14:52.127Z,27.47
2018-06-09T21:17:20.579Z,27.40
2018-06-09T21:19:48.871Z,27.42
2018-06-09T21:22:17.203Z,27.12
2018-06-09T21:24:45.444Z,27.05
2018-06-09T21:27:19.054Z,27.06
2018-06-09T21:29:55.533Z,27.06
2018-06-09T21:32:33.695Z,26.97
2018-06-09T21:35:18.869Z,27.15
2018-06-09T21:37:48.535Z,27.05
2018-06-09T21:40:22.250Z,26.83
2018-06-09T21:42:56.032Z,26.81
2018-06-09T21:45:28.613Z,26.75
2018-06-09T21:47:57.016Z,26.59
2018-06-09T21:50:25.345Z,26.92
2018-06-09T21:52:53.653Z,26.94
2018-06-09T21:55:21.959Z,26.65
2018-06-09T21:57:50.499Z,26.38
2018-06-09T22:00:19.029Z,26.52
2018-06-09T22:02:47.369Z,26.44
2018-06-09T22:05:15.698Z,26.61
2018-06-09T22:07:43.986Z,26.58
2018-06-09T22:10:12.238Z,26.52
2018-06-09T22:12:40.533Z,26.40
2018-06-09T22:15:08.842Z,26.34
2018-06-09T22:17:37.233Z,26.29
2018-06-09T22:20:05.600Z,26.12
2018-06-09T22:22:33.881Z,26.09
2018-06-09T22:25:02.230Z,26.26
2018-06-09T22:27:30.527Z,26.11
2018-06-09T22:29:58.869Z,26.03
2018-06-09T22:32:27.184Z,26.35
2018-06-09T22:34:55.462Z,26.18
2018-06-09T22:37:23.724Z,26.15
2018-06-09T22:39:52.069Z,26.05
2018-06-09T22:42:20.324Z,26.15
2018-06-09T22:44:48.779Z,26.19
2018-06-09T22:47:17.104Z,26.13
2018-06-09T22:49:45.371Z,25.95
2018-06-09T22:52:13.685Z,25.87
2018-06-09T22:54:42.047Z,26.02
2018-06-09T22:57:10.325Z,25.99
2018-06-09T22:59:38.560Z,25.94
2018-06-09T23:02:06.857Z,25.83
2018-06-09T23:04:35.070Z,25.78
2018-06-09T23:07:03.334Z,25.81
2018-06-09T23:09:31.630Z,25.52
2018-06-09T23:11:59.909Z,25.46
2018-06-09T23:14:28.179Z,25.05
2018-06-09T23:16:56.440Z,25.16
2018-06-09T23:19:24.677Z,25.51
2018-06-09T23:21:52.933Z,25.29
2018-06-09T23:24:21.201Z,25.14
2018-06-09T23:26:49.518Z,25.22
2018-06-09T23:29:17.831Z,25.10
2018-06-09T23:31:46.088Z,24.85
2018-06-09T23:34:14.322Z,24.85
2018-06-09T23:36:42.557Z,24.61
2018-06-09T23:39:10.952Z,24.96
2018-06-09T23:41:39.179Z,24.87
2018-06-09T23:44:07.434Z,24.85
2018-06-09T23:46:35.691Z,24.82
2018-06-09T23:49:03.975Z,24.92
2018-06-09T23:51:32.275Z,24.90
2018-06-09T23:54:00.681Z,25.06
2018-06-09T23:56:28.925Z,25.10
2018-06-09T23:58:57.209Z,24.77
